createdAt,value
2022-08-11T00:01:59.450Z,51206.06
2022-08-11T00:04:36.059Z,51169.53
2022-08-11T00:07:05.797Z,51161.44
2022-08-11T00:09:39.022Z,51149.25
2022-08-11T00:12:13.899Z,51126.94
2022-08-11T00:14:40.982Z,51185.78
2022-08-11T00:17:15.839Z,51163.47
2022-08-11T00:20:14.070Z,51155.34
2022-08-11T00:22:34.225Z,51165.50
2022-08-11T00:25:10.235Z,51155.34
2022-08-11T00:27:39.383Z,51161.44
2022-08-11T00:30:07.564Z,51189.84
2022-08-11T00:32:35.274Z,51179.69
2022-08-11T00:35:55.153Z,51181.72
2022-08-11T00:37:54.679Z,51189.84
2022-08-11T00:40:33.225Z,51181.72
2022-08-11T00:43:24.607Z,51159.41
2022-08-11T00:46:16.911Z,51181.72
2022-08-11T00:49:08.886Z,51210.13
2022-08-11T00:52:09.482Z,51185.78
2022-08-11T00:55:07.386Z,51210.13
2022-08-11T00:57:59.290Z,51208.09
2022-08-11T01:00:32.224Z,51193.91
2022-08-11T01:03:07.731Z,51195.94
2022-08-11T01:06:22.988Z,51214.19
2022-08-11T01:09:22.790Z,51210.13
2022-08-11T01:12:04.843Z,51206.06
2022-08-11T01:15:09.162Z,51206.06
2022-08-11T01:18:29.854Z,51244.63
2022-08-11T01:21:40.394Z,51222.31
2022-08-11T01:24:27.826Z,51242.59
2022-08-11T01:27:37.298Z,51262.88
2022-08-11T01:30:42.135Z,51287.25
2022-08-11T01:33:51.970Z,51275.06
2022-08-11T01:36:45.654Z,51254.78
2022-08-11T01:39:46.503Z,51307.53
2022-08-11T01:43:05.248Z,51307.53
2022-08-11T01:45:43.075Z,51335.94
2022-08-11T01:48:29.012Z,51335.94
2022-08-11T01:51:17.233Z,51325.78
2022-08-11T01:54:00.614Z,51370.44
2022-08-11T01:56:38.388Z,51337.97
2022-08-11T01:59:17.075Z,51346.09
2022-08-11T02:02:20.585Z,51388.69
2022-08-11T02:05:07.060Z,51388.69
2022-08-11T02:07:49.620Z,51400.88
2022-08-11T02:10:50.642Z,51423.19
2022-08-11T02:13:47.360Z,51451.63
2022-08-11T02:16:48.733Z,51461.75
2022-08-11T02:19:36.867Z,51465.81
2022-08-11T02:22:38.100Z,51457.69
2022-08-11T02:25:08.524Z,51482.06
2022-08-11T02:27:43.801Z,51396.81
2022-08-11T02:30:23.018Z,51522.63
2022-08-11T02:33:23.518Z,51498.28
2022-08-11T02:35:58.222Z,51494.22
2022-08-11T02:38:51.591Z,51498.28
2022-08-11T02:41:59.847Z,51498.28
2022-08-11T02:44:49.972Z,51547.00
2022-08-11T02:48:11.118Z,51565.25
2022-08-11T02:50:49.302Z,51544.97
2022-08-11T02:53:39.209Z,51632.22
2022-08-11T02:56:22.858Z,51656.56
2022-08-11T02:59:20.354Z,51559.16
2022-08-11T03:02:04.711Z,51567.28
2022-08-11T03:04:51.338Z,51613.97
2022-08-11T03:07:28.722Z,51583.53
2022-08-11T03:10:09.984Z,51662.66
2022-08-11T03:13:08.191Z,51620.06
2022-08-11T03:16:08.964Z,51689.06
2022-08-11T03:18:47.199Z,51652.53
2022-08-11T03:22:02.920Z,51717.47
2022-08-11T03:24:31.499Z,51695.13
2022-08-11T03:27:11.085Z,51762.09
2022-08-11T03:29:46.709Z,51770.22
2022-08-11T03:32:29.158Z,51766.16
2022-08-11T03:35:01.332Z,51790.53
2022-08-11T03:38:02.533Z,51812.84
2022-08-11T03:41:05.395Z,51802.69
2022-08-11T03:44:06.785Z,51847.34
2022-08-11T03:46:47.711Z,51881.84
2022-08-11T03:49:51.734Z,51908.22
2022-08-11T03:52:47.861Z,51812.84
2022-08-11T03:55:52.038Z,51835.16
2022-08-11T03:58:46.183Z,51908.22
2022-08-11T04:01:29.560Z,51906.22
2022-08-11T04:04:23.510Z,51961.00
2022-08-11T04:07:20.055Z,51920.41
2022-08-11T04:10:30.475Z,51912.28
2022-08-11T04:13:34.467Z,51934.63
2022-08-11T04:16:24.362Z,51973.19
2022-08-11T04:19:13.282Z,52001.59
2022-08-11T04:22:28.228Z,52017.84
2022-08-11T04:25:16.287Z,52050.31
2022-08-11T04:28:09.763Z,52007.69
2022-08-11T04:31:50.635Z,51956.94
2022-08-11T04:34:34.638Z,51965.06
2022-08-11T04:37:34.377Z,51963.03
2022-08-11T04:40:31.952Z,52066.53
2022-08-11T04:43:23.064Z,52090.91
2022-08-11T04:46:26.259Z,52159.91
2022-08-11T04:49:34.154Z,52139.63
2022-08-11T04:52:47.472Z,52204.56
2022-08-11T04:56:02.721Z,52220.81
2022-08-11T04:58:57.670Z,52237.03
2022-08-11T05:01:42.210Z,52267.47
2022-08-11T05:04:52.313Z,52269.50
2022-08-11T05:07:39.650Z,52267.47
2022-08-11T05:10:43.495Z,52237.03
2022-08-11T05:13:30.658Z,52289.81
2022-08-11T05:16:18.561Z,52293.88
2022-08-11T05:19:09.029Z,52220.81
2022-08-11T05:21:57.381Z,52230.94
2022-08-11T05:24:48.714Z,52228.91
2022-08-11T05:27:35.190Z,52265.44
2022-08-11T05:30:31.621Z,52208.63
2022-08-11T05:33:28.121Z,52176.16
2022-08-11T05:36:12.389Z,52224.84
2022-08-11T05:38:58.250Z,52139.63
2022-08-11T05:41:45.558Z,52137.59
2022-08-11T05:44:39.609Z,52082.78
2022-08-11T05:47:25.221Z,51977.25
2022-08-11T05:50:13.636Z,51932.59
2022-08-11T05:53:04.942Z,51920.41
2022-08-11T05:56:03.138Z,51887.94
2022-08-11T05:58:42.718Z,51831.13
2022-08-11T06:01:13.760Z,51754.00
2022-08-11T06:04:03.185Z,51772.25
2022-08-11T06:06:31.185Z,51774.28
2022-08-11T06:08:59.555Z,51709.34
2022-08-11T06:11:44.117Z,51729.63
2022-08-11T06:14:12.262Z,51693.09
2022-08-11T06:16:41.809Z,51668.75
2022-08-11T06:19:09.790Z,51682.97
2022-08-11T06:21:37.553Z,51652.53
2022-08-11T06:24:12.803Z,51644.41
2022-08-11T06:27:08.712Z,51652.53
2022-08-11T06:29:37.395Z,51581.50
2022-08-11T06:32:05.678Z,51599.75
2022-08-11T06:34:59.610Z,51518.59
2022-08-11T06:37:49.747Z,51553.06
2022-08-11T06:41:07.678Z,51514.53
2022-08-11T06:44:00.896Z,51459.72
2022-08-11T06:46:37.165Z,51441.47
2022-08-11T06:49:27.809Z,51390.72
2022-08-11T06:51:56.888Z,51337.97
2022-08-11T06:54:34.503Z,51342.03
2022-08-11T06:57:30.737Z,51344.06
2022-08-11T07:00:18.073Z,51303.47
2022-08-11T07:02:57.492Z,51279.13
2022-08-11T07:05:43.809Z,51307.53
2022-08-11T07:08:51.013Z,51287.25
2022-08-11T07:12:08.116Z,51271.00
2022-08-11T07:15:05.747Z,51238.53
2022-08-11T07:17:37.725Z,51242.59
2022-08-11T07:20:25.098Z,51226.38
2022-08-11T07:23:19.679Z,51222.31
2022-08-11T07:26:10.610Z,51206.06
2022-08-11T07:28:55.302Z,51214.19
2022-08-11T07:31:30.011Z,51242.59
2022-08-11T07:34:14.624Z,51226.38
2022-08-11T07:36:50.145Z,51214.19
2022-08-11T07:39:28.318Z,51220.28
2022-08-11T07:41:57.605Z,51232.44
2022-08-11T07:44:34.270Z,51246.66
2022-08-11T07:47:20.658Z,51291.31
2022-08-11T07:50:08.099Z,51295.34
2022-08-11T07:52:38.168Z,51313.63
2022-08-11T07:55:13.445Z,51368.41
2022-08-11T07:58:16.035Z,51370.44
2022-08-11T08:01:10.651Z,51384.66
2022-08-11T08:04:06.872Z,51415.09
2022-08-11T08:06:53.158Z,51419.16
2022-08-11T08:09:40.690Z,51425.22
2022-08-11T08:12:27.420Z,51482.06
2022-08-11T08:15:13.881Z,51445.53
2022-08-11T08:18:09.015Z,51465.81
2022-08-11T08:20:46.881Z,51482.06
2022-08-11T08:23:13.697Z,51478.00
2022-08-11T08:25:42.233Z,51506.41
2022-08-11T08:28:32.620Z,51522.63
2022-08-11T08:31:00.177Z,51484.09
2022-08-11T08:33:30.279Z,51506.41
2022-08-11T08:36:12.792Z,51508.44
2022-08-11T08:38:57.520Z,51514.53
2022-08-11T08:41:38.472Z,51557.13
2022-08-11T08:44:35.072Z,51551.06
2022-08-11T08:46:58.536Z,51504.38
2022-08-11T08:49:40.531Z,51553.06
2022-08-11T08:52:25.387Z,51534.81
2022-08-11T08:54:58.037Z,51551.06
2022-08-11T08:57:28.976Z,51575.41
2022-08-11T08:59:57.610Z,51522.63
2022-08-11T09:02:34.823Z,51500.31
2022-08-11T09:05:03.773Z,51557.13
2022-08-11T09:07:38.589Z,51508.44
2022-08-11T09:10:08.541Z,51522.63
2022-08-11T09:12:38.894Z,51563.22
2022-08-11T09:15:09.124Z,51514.53
2022-08-11T09:17:43.499Z,51571.34
2022-08-11T09:20:14.838Z,51551.06
2022-08-11T09:26:11.456Z,51482.06
2022-08-11T09:28:38.126Z,51510.47
2022-08-11T09:31:06.917Z,51471.91
2022-08-11T09:33:34.133Z,51547.00
2022-08-11T09:36:24.079Z,51534.81
2022-08-11T09:39:10.542Z,51599.75
2022-08-11T09:42:00.472Z,51603.81
2022-08-11T09:44:45.866Z,51595.69
2022-08-11T09:47:30.265Z,51575.41
2022-08-11T09:50:02.170Z,51579.47
2022-08-11T09:52:57.167Z,51587.56
2022-08-11T09:55:27.480Z,51593.66
2022-08-11T09:58:12.579Z,51613.97
2022-08-11T10:01:02.094Z,51593.66
2022-08-11T10:03:31.084Z,51547.00
2022-08-11T10:06:19.235Z,51555.09
2022-08-11T10:08:51.140Z,51555.09
2022-08-11T10:11:23.233Z,51569.31
2022-08-11T10:14:33.344Z,51585.56
2022-08-11T10:17:02.670Z,51571.34
2022-08-11T10:19:32.891Z,51530.75
2022-08-11T10:22:18.040Z,51524.66
2022-08-11T10:25:03.923Z,51482.06
2022-08-11T10:28:09.003Z,51463.78
2022-08-11T10:30:35.991Z,51433.34
2022-08-11T10:33:37.010Z,51486.13
2022-08-11T10:36:16.159Z,51478.00
2022-08-11T10:38:45.834Z,51378.56
2022-08-11T10:41:32.726Z,51356.22
2022-08-11T10:44:02.876Z,51467.84
2022-08-11T10:46:50.171Z,51425.22
2022-08-11T10:49:18.815Z,51465.81
2022-08-11T10:52:05.354Z,51536.84
2022-08-11T10:54:52.838Z,51465.81
2022-08-11T10:57:38.398Z,51534.81
2022-08-11T11:00:06.968Z,51502.34
2022-08-11T11:02:34.443Z,51437.41
2022-08-11T11:05:15.302Z,51437.41
2022-08-11T11:07:54.931Z,51455.66
2022-08-11T11:10:21.604Z,51524.66
2022-08-11T11:13:13.366Z,51551.06
2022-08-11T11:16:01.225Z,51524.66
2022-08-11T11:18:35.891Z,51542.94
2022-08-11T11:21:09.117Z,51480.03
2022-08-11T11:23:47.224Z,51512.50
2022-08-11T11:26:45.740Z,51486.13
2022-08-11T11:29:37.981Z,51482.06
2022-08-11T11:32:27.682Z,51457.69
2022-08-11T11:35:12.846Z,51490.16
2022-08-11T11:37:41.570Z,51547.00
2022-08-11T11:40:31.998Z,51502.34
2022-08-11T11:42:59.876Z,51494.22
2022-08-11T11:45:26.789Z,51473.94
2022-08-11T11:47:59.016Z,51480.03
2022-08-11T11:50:35.119Z,51482.06
2022-08-11T11:53:05.720Z,51486.13
2022-08-11T11:55:33.092Z,51423.19
2022-08-11T11:58:20.373Z,51467.84
2022-08-11T12:01:08.196Z,51461.75
2022-08-11T12:03:35.825Z,51415.09
2022-08-11T12:06:03.441Z,51392.75
2022-08-11T12:08:31.414Z,51384.66
2022-08-11T12:11:22.694Z,51372.47
2022-08-11T12:13:51.830Z,51392.75
2022-08-11T12:16:32.946Z,51392.75
2022-08-11T12:19:06.003Z,51423.19
2022-08-11T12:21:35.877Z,51457.69
2022-08-11T12:24:21.826Z,51384.66
2022-08-11T12:27:16.012Z,51331.88
2022-08-11T12:29:44.300Z,51390.72
2022-08-11T12:32:11.029Z,51429.28
2022-08-11T12:34:37.583Z,51425.22
2022-08-11T12:37:06.913Z,51411.03
2022-08-11T12:40:10.773Z,51358.25
2022-08-11T12:43:03.859Z,51417.13
2022-08-11T12:45:31.514Z,51333.91
2022-08-11T12:48:58.599Z,51376.53
2022-08-11T12:51:28.960Z,51325.78
2022-08-11T12:54:10.725Z,51356.22
2022-08-11T12:56:58.530Z,51340.00
2022-08-11T12:59:44.333Z,51350.16
2022-08-11T13:02:38.167Z,51342.03
2022-08-11T13:05:08.820Z,51319.72
2022-08-11T13:07:51.154Z,51313.63
2022-08-11T13:10:38.120Z,51301.44
2022-08-11T13:13:55.128Z,51344.06
2022-08-11T13:15:53.873Z,51323.75
2022-08-11T13:18:23.318Z,51313.63
2022-08-11T13:20:55.092Z,51340.00
2022-08-11T13:23:23.457Z,51327.81
2022-08-11T13:25:53.380Z,51372.47
2022-08-11T13:28:21.984Z,51305.50
2022-08-11T13:31:08.863Z,51340.00
2022-08-11T13:33:40.377Z,51301.44
2022-08-11T13:36:07.692Z,51291.31
2022-08-11T13:38:35.062Z,51307.53
2022-08-11T13:41:01.993Z,51311.59
2022-08-11T13:43:29.319Z,51317.69
2022-08-11T13:46:16.469Z,51299.41
2022-08-11T13:48:43.209Z,51303.47
2022-08-11T13:51:34.835Z,51295.34
2022-08-11T13:54:06.029Z,51311.59
2022-08-11T13:56:34.665Z,51291.31
2022-08-11T13:59:03.416Z,51311.59
2022-08-11T14:02:19.441Z,51299.41
2022-08-11T14:04:35.853Z,51311.59
2022-08-11T14:07:07.090Z,51293.31
2022-08-11T14:09:40.213Z,51340.00
2022-08-11T14:12:31.633Z,51313.63
2022-08-11T14:15:10.300Z,51331.88
2022-08-11T14:17:48.548Z,51293.31
2022-08-11T14:20:39.151Z,51291.31
2022-08-11T14:23:05.801Z,51311.59
2022-08-11T14:26:00.409Z,51295.34
2022-08-11T14:28:31.821Z,51291.31
2022-08-11T14:31:05.165Z,51299.41
2022-08-11T14:33:58.371Z,51295.34
2022-08-11T14:36:23.047Z,51303.47
2022-08-11T14:38:50.774Z,51260.88
2022-08-11T14:41:37.216Z,51289.28
2022-08-11T14:44:43.673Z,51287.25
2022-08-11T14:47:23.072Z,51281.16
2022-08-11T14:49:58.528Z,51291.31
2022-08-11T14:52:37.400Z,51271.00
2022-08-11T14:55:23.323Z,51295.34
2022-08-11T14:57:55.518Z,51299.41
2022-08-11T15:00:23.670Z,51331.88
2022-08-11T15:03:09.135Z,51311.59
2022-08-11T15:05:36.717Z,51275.06
2022-08-11T15:08:03.775Z,51256.81
2022-08-11T15:10:30.687Z,51254.78
2022-08-11T15:12:57.809Z,51271.00
2022-08-11T15:15:44.747Z,51289.28
2022-08-11T15:18:17.388Z,51281.16
2022-08-11T15:21:02.511Z,51275.06
2022-08-11T15:23:49.584Z,51277.09
2022-08-11T15:26:45.473Z,51254.78
2022-08-11T15:29:32.609Z,51295.34
2022-08-11T15:32:18.499Z,51279.13
2022-08-11T15:35:09.301Z,51258.84
2022-08-11T15:37:37.676Z,51258.84
2022-08-11T15:40:51.242Z,51264.91
2022-08-11T15:43:56.422Z,51279.13
2022-08-11T15:46:31.524Z,51242.59
2022-08-11T15:49:11.173Z,51262.88
2022-08-11T15:51:42.915Z,51275.06
2022-08-11T15:54:15.565Z,51234.47
2022-08-11T15:56:46.451Z,51242.59
2022-08-11T15:59:42.037Z,51266.94
2022-08-11T16:02:16.269Z,51273.03
2022-08-11T16:04:45.932Z,51252.75
2022-08-11T16:07:15.720Z,51275.06
2022-08-11T16:09:51.602Z,51226.38
2022-08-11T16:12:32.857Z,51242.59
2022-08-11T16:15:27.812Z,51252.75
2022-08-11T16:18:01.980Z,51222.31
2022-08-11T16:20:30.707Z,51238.53
2022-08-11T16:23:02.775Z,51236.50
2022-08-11T16:27:02.079Z,51238.53
2022-08-11T16:28:20.751Z,51236.50
2022-08-11T16:30:48.962Z,51238.53
2022-08-11T16:33:22.518Z,51244.63
2022-08-11T16:36:23.524Z,51254.78
2022-08-11T16:38:51.368Z,51222.31
2022-08-11T16:41:41.149Z,51240.56
2022-08-11T16:44:36.880Z,51216.22
2022-08-11T16:47:06.655Z,51210.13
2022-08-11T16:49:39.383Z,51226.38
2022-08-11T16:52:12.140Z,51228.41
2022-08-11T16:54:40.802Z,51210.13
2022-08-11T16:57:33.970Z,51250.72
2022-08-11T17:00:06.236Z,51230.41
2022-08-11T17:02:56.050Z,51224.34
2022-08-11T17:05:54.379Z,51228.41
2022-08-11T17:08:45.217Z,51216.22
2022-08-11T17:11:49.584Z,51230.41
2022-08-11T17:14:43.199Z,51206.06
2022-08-11T17:17:15.449Z,51210.13
2022-08-11T17:20:40.857Z,51189.84
2022-08-11T17:22:55.128Z,51208.09
2022-08-11T17:25:25.809Z,51214.19
2022-08-11T17:27:54.200Z,51206.06
2022-08-11T17:30:21.706Z,51199.97
2022-08-11T17:33:10.109Z,51210.13
2022-08-11T17:35:39.352Z,51199.97
2022-08-11T17:38:12.579Z,51189.84
2022-08-11T17:41:03.176Z,51212.16
2022-08-11T17:43:49.767Z,51199.97
2022-08-11T17:46:36.020Z,51210.13
2022-08-11T17:49:07.644Z,51202.00
2022-08-11T17:51:53.900Z,51214.19
2022-08-11T17:54:41.690Z,51191.88
2022-08-11T17:57:28.594Z,51197.97
2022-08-11T17:59:57.931Z,51214.19
2022-08-11T18:02:52.408Z,51202.00
2022-08-11T18:05:21.637Z,51187.81
2022-08-11T18:08:10.145Z,51161.44
2022-08-11T18:11:02.726Z,51173.59
2022-08-11T18:13:51.663Z,51185.78
2022-08-11T18:16:37.462Z,51179.69
2022-08-11T18:19:24.242Z,51173.59
2022-08-11T18:22:15.317Z,51157.38
2022-08-11T18:25:07.343Z,51141.13
2022-08-11T18:27:54.803Z,51167.53
2022-08-11T18:30:43.265Z,51179.69
2022-08-11T18:36:41.627Z,51157.38
2022-08-11T18:39:30.625Z,51149.25
2022-08-11T18:42:28.779Z,51157.38
2022-08-11T18:45:21.383Z,51167.53
2022-08-11T18:48:12.757Z,51147.22
2022-08-11T18:51:31.697Z,51108.66
2022-08-11T18:54:11.225Z,51141.13
2022-08-11T18:56:56.502Z,51135.06
2022-08-11T18:59:46.079Z,51133.03
2022-08-11T19:02:48.593Z,51108.66
2022-08-11T19:06:31.665Z,51112.72
2022-08-11T19:08:47.807Z,51128.97
2022-08-11T19:11:33.683Z,51120.84
2022-08-11T19:14:21.514Z,51118.81
2022-08-11T19:17:09.529Z,51124.91
2022-08-11T19:19:56.339Z,51106.63
2022-08-11T19:22:42.707Z,51086.34
2022-08-11T19:25:30.076Z,51104.63
2022-08-11T19:28:16.351Z,51078.22
2022-08-11T19:31:02.225Z,51094.47
2022-08-11T19:34:02.562Z,51108.66
2022-08-11T19:36:54.624Z,51104.63
2022-08-11T19:39:41.051Z,51120.84
2022-08-11T19:42:28.214Z,51094.47
2022-08-11T19:45:14.800Z,51108.66
2022-08-11T19:48:28.509Z,51080.25
2022-08-11T19:51:07.925Z,51102.59
2022-08-11T19:53:54.779Z,51084.31
2022-08-11T19:56:40.104Z,51092.44
2022-08-11T19:59:26.947Z,51102.59
2022-08-11T20:02:14.319Z,51072.16
2022-08-11T20:05:00.669Z,51055.91
2022-08-11T20:07:46.901Z,51098.53
2022-08-11T20:10:34.745Z,51088.38
2022-08-11T20:13:21.876Z,51059.97
2022-08-11T20:16:07.652Z,51072.16
2022-08-11T20:18:54.386Z,51074.19
2022-08-11T20:21:40.823Z,51055.91
2022-08-11T20:24:26.918Z,51023.44
2022-08-11T20:27:24.268Z,51031.56
2022-08-11T20:30:11.103Z,51064.03
2022-08-11T20:32:57.993Z,51062.00
2022-08-11T20:35:44.491Z,51059.97
2022-08-11T20:38:32.163Z,51057.94
2022-08-11T20:41:19.110Z,51027.50
2022-08-11T20:44:09.084Z,51019.38
2022-08-11T20:46:58.269Z,51047.78
2022-08-11T20:49:53.677Z,51047.78
2022-08-11T20:52:47.159Z,51011.28
2022-08-11T20:55:51.684Z,51025.47
2022-08-11T21:01:46.252Z,51039.69
2022-08-11T21:04:32.775Z,51057.94
2022-08-11T21:07:28.433Z,51013.31
2022-08-11T21:10:24.120Z,51017.34
2022-08-11T21:13:24.073Z,51031.56
2022-08-11T21:16:18.351Z,51011.28
2022-08-11T21:19:16.156Z,50999.09
2022-08-11T21:22:03.797Z,51037.66
2022-08-11T21:24:51.743Z,51039.69
2022-08-11T21:27:40.040Z,51023.44
2022-08-11T21:30:25.920Z,51035.63
2022-08-11T21:33:11.872Z,51009.25
2022-08-11T21:35:57.338Z,51015.34
2022-08-11T21:38:43.672Z,51003.16
2022-08-11T21:41:29.605Z,50995.03
2022-08-11T21:44:16.483Z,51011.28
2022-08-11T21:47:02.821Z,51023.44
2022-08-11T21:49:49.641Z,51015.34
2022-08-11T21:52:35.619Z,51033.59
2022-08-11T21:55:21.391Z,51047.78
2022-08-11T21:58:07.924Z,51035.63
2022-08-11T22:00:53.288Z,51031.56
2022-08-11T22:03:44.407Z,51072.16
2022-08-11T22:06:37.136Z,51031.56
2022-08-11T22:09:22.374Z,51043.75
2022-08-11T22:12:33.951Z,51031.56
2022-08-11T22:15:13.132Z,51029.53
2022-08-11T22:17:58.340Z,51043.75
2022-08-11T22:20:45.729Z,51053.88
2022-08-11T22:23:35.315Z,51053.88
2022-08-11T22:26:22.388Z,51047.78
2022-08-11T22:29:07.849Z,51047.78
2022-08-11T22:31:54.925Z,51068.09
2022-08-11T22:34:53.426Z,51049.81
2022-08-11T22:37:42.031Z,51051.84
2022-08-11T22:40:29.032Z,51092.44
2022-08-11T22:43:13.788Z,51080.25
2022-08-11T22:45:59.161Z,51092.44
2022-08-11T22:48:47.140Z,51057.94
2022-08-11T22:51:33.291Z,51059.97
2022-08-11T22:54:22.810Z,51092.44
2022-08-11T22:57:09.285Z,51090.41
2022-08-11T22:59:55.310Z,51118.81
2022-08-11T23:02:40.694Z,51104.63
2022-08-11T23:05:27.208Z,51088.38
2022-08-11T23:08:13.963Z,51112.72
2022-08-11T23:11:00.355Z,51118.81
2022-08-11T23:13:47.113Z,51116.78
2022-08-11T23:16:32.319Z,51112.72
2022-08-11T23:20:06.891Z,51137.09
2022-08-11T23:22:23.624Z,51133.03
2022-08-11T23:25:23.075Z,51183.75
2022-08-11T23:28:07.995Z,51212.16
2022-08-11T23:30:53.814Z,51226.38
2022-08-11T23:33:40.606Z,51250.72
2022-08-11T23:36:36.139Z,51258.84
2022-08-11T23:39:30.790Z,51246.66
2022-08-11T23:42:15.911Z,51271.00
2022-08-11T23:45:00.729Z,51289.28
2022-08-11T23:47:50.876Z,51283.19
2022-08-11T23:50:38.288Z,51246.66
2022-08-11T23:53:23.724Z,51283.19
2022-08-11T23:56:08.939Z,51335.94
2022-08-11T23:58:58.004Z,51303.47
